createdAt,value
2023-08-12T00:04:56.186Z,100926.25
2023-08-12T00:10:00.569Z,100922.77
2023-08-12T00:15:06.422Z,100923.67
2023-08-12T00:20:12.465Z,100930.41
2023-08-12T00:25:16.381Z,100925.77
2023-08-12T00:30:19.273Z,100932.10
2023-08-12T00:35:22.144Z,100932.72
2023-08-12T00:40:27.255Z,100937.45
2023-08-12T00:45:30.617Z,100933.95
2023-08-12T00:50:33.628Z,100930.70
2023-08-12T00:55:36.705Z,100931.32
2023-08-12T01:00:39.544Z,100925.16
2023-08-12T01:05:43.785Z,100931.15
2023-08-12T01:10:53.571Z,100930.44
2023-08-12T01:16:00.256Z,100928.10
2023-08-12T01:21:05.020Z,100928.96
2023-08-12T01:26:07.920Z,100926.05
2023-08-12T01:31:30.928Z,100931.33
2023-08-12T01:36:37.721Z,100934.96
2023-08-12T01:41:40.763Z,100937.29
2023-08-12T01:46:45.461Z,100944.77
2023-08-12T01:51:48.436Z,100945.80
2023-08-12T01:56:51.301Z,100947.55
2023-08-12T02:01:54.165Z,100948.15
2023-08-12T02:06:57.123Z,100950.42
2023-08-12T02:12:00.048Z,100951.70
2023-08-12T02:17:03.370Z,100951.90
2023-08-12T02:22:06.223Z,100949.23
2023-08-12T02:27:09.262Z,100954.16
2023-08-12T02:32:12.202Z,100953.77
2023-08-12T02:37:15.058Z,100953.61
2023-08-12T02:42:17.966Z,100952.79
2023-08-12T02:47:20.802Z,100956.64
2023-08-12T02:52:23.711Z,100953.67
2023-08-12T02:57:27.077Z,100949.11
2023-08-12T03:02:29.999Z,100948.11
2023-08-12T03:07:32.914Z,100947.01
2023-08-12T03:12:36.240Z,100942.60
2023-08-12T03:17:43.011Z,100949.29
2023-08-12T03:22:45.964Z,100955.16
2023-08-12T03:27:48.802Z,100948.30
2023-08-12T03:32:53.172Z,100950.91
2023-08-12T03:37:56.046Z,100949.15
2023-08-12T03:42:58.940Z,100951.44
2023-08-12T03:48:01.795Z,100958.30
2023-08-12T03:53:05.605Z,100951.33
2023-08-12T03:58:08.579Z,100952.29
2023-08-12T04:03:11.589Z,100952.56
2023-08-12T04:08:15.049Z,100951.79
2023-08-12T04:13:18.425Z,100946.33
2023-08-12T04:18:21.337Z,100948.05
2023-08-12T04:23:24.205Z,100947.98
2023-08-12T04:28:27.564Z,100949.51
2023-08-12T04:33:30.436Z,100947.70
2023-08-12T04:38:33.461Z,100950.92
2023-08-12T04:43:36.217Z,100949.08
2023-08-12T04:48:39.070Z,100949.14
2023-08-12T04:53:41.985Z,100947.39
2023-08-12T04:58:44.816Z,100952.27
2023-08-12T05:03:47.648Z,100955.91
2023-08-12T05:08:50.514Z,100952.31
2023-08-12T05:13:53.272Z,100953.59
2023-08-12T05:18:56.226Z,100951.52
2023-08-12T05:23:58.997Z,100945.02
2023-08-12T05:29:01.874Z,100943.92
2023-08-12T05:34:04.764Z,100950.11
2023-08-12T05:39:07.589Z,100950.92
2023-08-12T05:44:10.368Z,100950.48
2023-08-12T05:49:13.241Z,100953.39
2023-08-12T05:54:15.997Z,100949.89
2023-08-12T05:59:18.847Z,100943.23
2023-08-12T06:04:21.782Z,100935.10
2023-08-12T06:09:24.656Z,100941.02
2023-08-12T06:14:27.492Z,100939.96
2023-08-12T06:19:30.331Z,100942.62
2023-08-12T06:24:33.436Z,100938.85
2023-08-12T06:29:36.379Z,100940.04
2023-08-12T06:34:39.317Z,100937.41
2023-08-12T06:39:42.382Z,100932.57
2023-08-12T06:44:46.489Z,100931.17
2023-08-12T06:49:49.593Z,100933.50
2023-08-12T06:54:54.152Z,100931.04
2023-08-12T07:00:00.127Z,100929.58
2023-08-12T07:05:04.944Z,100928.83
2023-08-12T07:10:09.949Z,100927.58
2023-08-12T07:15:15.208Z,100931.97
2023-08-12T07:20:18.245Z,100920.30
2023-08-12T07:25:22.815Z,100921.94
2023-08-12T07:30:25.751Z,100918.94
2023-08-12T07:35:29.507Z,100913.08
2023-08-12T07:40:42.110Z,100908.29
2023-08-12T07:45:51.340Z,100902.87
2023-08-12T07:51:00.489Z,100895.35
2023-08-12T07:56:05.958Z,100895.58
2023-08-12T08:01:10.662Z,100890.03
2023-08-12T08:06:14.299Z,100883.02
2023-08-12T08:11:19.281Z,100878.66
2023-08-12T08:16:24.564Z,100881.95
2023-08-12T08:21:27.724Z,100875.63
2023-08-12T08:26:30.950Z,100872.43
2023-08-12T08:31:34.370Z,100873.89
2023-08-12T08:36:39.733Z,100870.34
2023-08-12T08:41:44.990Z,100868.11
2023-08-12T08:46:48.536Z,100868.26
2023-08-12T08:51:52.568Z,100866.14
2023-08-12T08:57:01.004Z,100857.98
2023-08-12T09:02:17.775Z,100857.86
2023-08-12T09:07:22.292Z,100857.72
2023-08-12T09:12:25.858Z,100856.29
2023-08-12T09:17:29.069Z,100857.09
2023-08-12T09:22:32.229Z,100858.45
2023-08-12T09:27:37.293Z,100844.21
2023-08-12T09:32:40.235Z,100842.77
2023-08-12T09:37:43.279Z,100836.79
2023-08-12T09:42:47.751Z,100834.03
2023-08-12T09:47:51.698Z,100827.17
2023-08-12T09:52:56.466Z,100822.02
2023-08-12T09:58:01.259Z,100809.00
2023-08-12T10:03:05.506Z,100805.86
2023-08-12T10:08:09.198Z,100793.67
2023-08-12T10:13:13.406Z,100786.23
2023-08-12T10:18:16.708Z,100786.80
2023-08-12T10:23:20.187Z,100785.63
2023-08-12T10:28:23.516Z,100787.29
2023-08-12T10:33:26.513Z,100781.70
2023-08-12T10:38:30.235Z,100776.09
2023-08-12T10:43:52.199Z,100776.40
2023-08-12T10:49:05.404Z,100773.86
2023-08-12T10:54:31.200Z,100772.80
2023-08-12T10:59:46.617Z,100774.20
2023-08-12T11:05:03.933Z,100762.13
2023-08-12T11:10:14.424Z,100761.93
2023-08-12T11:15:17.627Z,100756.14
2023-08-12T11:20:20.576Z,100757.46
2023-08-12T11:25:24.003Z,100757.59
2023-08-12T11:30:28.995Z,100751.17
2023-08-12T11:35:33.216Z,100737.90
2023-08-12T11:40:36.343Z,100734.06
2023-08-12T11:45:43.285Z,100732.70
2023-08-12T11:50:46.405Z,100730.98
2023-08-12T11:55:49.585Z,100731.63
2023-08-12T12:00:52.799Z,100728.41
2023-08-12T12:05:58.760Z,100717.79
2023-08-12T12:11:07.203Z,100717.07
2023-08-12T12:16:12.890Z,100717.10
2023-08-12T12:21:21.803Z,100714.23
2023-08-12T12:26:25.000Z,100712.70
2023-08-12T12:31:27.886Z,100705.17
2023-08-12T12:36:36.699Z,100700.27
2023-08-12T12:41:39.752Z,100692.70
2023-08-12T12:46:42.817Z,100689.27
2023-08-12T12:51:47.209Z,100687.82
2023-08-12T12:56:50.798Z,100683.25
2023-08-12T13:01:57.089Z,100680.87
2023-08-12T13:07:00.641Z,100677.04
2023-08-12T13:12:05.900Z,100677.56
2023-08-12T13:17:13.160Z,100665.27
2023-08-12T13:22:17.942Z,100663.92
2023-08-12T13:27:21.043Z,100664.77
2023-08-12T13:32:24.231Z,100661.17
2023-08-12T13:37:41.072Z,100658.83
2023-08-12T13:42:48.488Z,100652.35
2023-08-12T13:47:55.290Z,100648.41
2023-08-12T13:52:58.443Z,100643.23
2023-08-12T13:58:02.583Z,100637.66
2023-08-12T14:03:05.944Z,100632.15
2023-08-12T14:08:12.740Z,100626.95
2023-08-12T14:13:15.928Z,100631.23
2023-08-12T14:18:19.473Z,100629.73
2023-08-12T14:23:22.429Z,100624.05
2023-08-12T14:28:26.186Z,100625.70
2023-08-12T14:33:30.293Z,100616.89
2023-08-12T14:38:34.294Z,100610.05
2023-08-12T14:43:38.344Z,100602.29
2023-08-12T14:48:41.400Z,100598.04
2023-08-12T14:53:44.708Z,100598.52
2023-08-12T14:58:51.624Z,100593.63
2023-08-12T15:03:55.839Z,100579.88
2023-08-12T15:08:58.827Z,100576.67
2023-08-12T15:14:01.679Z,100575.75
2023-08-12T15:19:05.016Z,100576.73
2023-08-12T15:24:08.241Z,100576.48
2023-08-12T15:29:11.192Z,100579.19
2023-08-12T15:34:14.208Z,100574.72
2023-08-12T15:39:18.157Z,100568.30
2023-08-12T15:44:21.539Z,100568.16
2023-08-12T15:49:25.808Z,100568.21
2023-08-12T15:54:30.275Z,100560.63
2023-08-12T15:59:33.856Z,100555.15
2023-08-12T16:04:36.994Z,100547.77
2023-08-12T16:09:41.196Z,100544.90
2023-08-12T16:14:44.171Z,100538.06
2023-08-12T16:19:49.179Z,100527.90
2023-08-12T16:24:52.448Z,100519.80
2023-08-12T16:30:00.247Z,100512.60
2023-08-12T16:35:03.187Z,100511.52
2023-08-12T16:40:07.617Z,100508.77
2023-08-12T16:45:10.881Z,100499.91
2023-08-12T16:50:13.740Z,100492.66
2023-08-12T16:55:16.718Z,100491.87
2023-08-12T17:00:20.130Z,100489.19
2023-08-12T17:05:23.006Z,100491.03
2023-08-12T17:10:25.960Z,100492.08
2023-08-12T17:15:29.347Z,100495.27
2023-08-12T17:20:32.320Z,100492.70
2023-08-12T17:25:35.212Z,100488.54
2023-08-12T17:30:38.113Z,100486.30
2023-08-12T17:35:41.391Z,100487.74
2023-08-12T17:40:44.888Z,100481.50
2023-08-12T17:45:48.889Z,100483.09
2023-08-12T17:50:51.829Z,100478.73
2023-08-12T17:55:54.807Z,100476.97
2023-08-12T18:00:58.412Z,100473.57
2023-08-12T18:06:04.791Z,100474.16
2023-08-12T18:11:07.748Z,100475.66
2023-08-12T18:16:10.968Z,100474.70
2023-08-12T18:21:15.550Z,100474.09
2023-08-12T18:26:18.475Z,100473.91
2023-08-12T18:31:21.318Z,100470.56
2023-08-12T18:36:24.209Z,100471.67
2023-08-12T18:41:27.077Z,100474.81
2023-08-12T18:46:30.198Z,100478.66
2023-08-12T18:51:33.133Z,100472.20
2023-08-12T18:56:36.116Z,100468.15
2023-08-12T19:01:38.953Z,100471.64
2023-08-12T19:06:41.862Z,100476.94
2023-08-12T19:11:45.625Z,100476.32
2023-08-12T19:16:48.567Z,100480.14
2023-08-12T19:21:51.442Z,100482.90
2023-08-12T19:26:54.294Z,100478.77
2023-08-12T19:31:57.151Z,100481.77
2023-08-12T19:37:00.074Z,100482.11
2023-08-12T19:42:03.690Z,100481.26
2023-08-12T19:47:11.112Z,100479.30
2023-08-12T19:52:16.372Z,100478.64
2023-08-12T19:57:26.145Z,100480.61
2023-08-12T20:02:38.458Z,100474.55
2023-08-12T20:07:49.855Z,100470.05
2023-08-12T20:12:56.677Z,100462.07
2023-08-12T20:18:00.754Z,100459.98
2023-08-12T20:23:06.535Z,100461.65
2023-08-12T20:28:10.351Z,100462.08
2023-08-12T20:33:13.726Z,100461.06
2023-08-12T20:38:19.545Z,100462.48
2023-08-12T20:43:22.408Z,100461.40
2023-08-12T20:48:25.345Z,100455.98
2023-08-12T20:53:29.994Z,100455.47
2023-08-12T20:58:32.916Z,100455.60
2023-08-12T21:03:35.916Z,100457.77
2023-08-12T21:08:38.978Z,100454.87
2023-08-12T21:13:41.853Z,100455.11
2023-08-12T21:18:44.905Z,100448.55
2023-08-12T21:23:47.943Z,100444.92
2023-08-12T21:28:50.919Z,100444.40
2023-08-12T21:33:53.852Z,100446.25
2023-08-12T21:38:57.185Z,100440.84
2023-08-12T21:44:00.472Z,100434.20
2023-08-12T21:49:03.753Z,100427.74
2023-08-12T21:54:06.649Z,100418.33
2023-08-12T21:59:09.637Z,100418.84
2023-08-12T22:04:12.570Z,100417.60
2023-08-12T22:09:15.449Z,100420.36
2023-08-12T22:14:18.314Z,100422.66
2023-08-12T22:19:21.184Z,100420.60
2023-08-12T22:24:24.217Z,100417.63
2023-08-12T22:29:27.063Z,100405.73
2023-08-12T22:34:29.950Z,100399.24
2023-08-12T22:39:32.913Z,100395.67
2023-08-12T22:44:35.773Z,100394.55
2023-08-12T22:49:38.639Z,100400.35
2023-08-12T22:54:41.787Z,100404.99
2023-08-12T22:59:45.020Z,100400.17
2023-08-12T23:04:47.977Z,100395.08
2023-08-12T23:09:50.912Z,100396.48
2023-08-12T23:14:54.825Z,100392.55
2023-08-12T23:19:57.668Z,100382.94
2023-08-12T23:25:00.553Z,100373.55
2023-08-12T23:30:04.498Z,100372.15
2023-08-12T23:35:08.413Z,100365.79
2023-08-12T23:40:15.126Z,100365.63
2023-08-12T23:45:18.038Z,100366.73
2023-08-12T23:50:20.966Z,100357.78
2023-08-12T23:55:23.833Z,100361.16
